Time;durP1;ratioP1;P1;durP2;ratioP2;P2;SDS_P1;SDS_P2;PMS_P1;PMS_P2;Temp;Humidity;BMP_temperature;BMP_pressure;BME280_temperature;BME280_humidity;BME280_pressure;Samples;Min_cycle;Max_cycle;Signal;HPM_P1;HPM_P2
2021/10/11 00:02:15;;;;;;;18.00;2.58;;;10.80;99.90;;;;;;5125012;27;20032;-85
2021/10/11 00:04:41;;;;;;;18.02;3.20;;;10.60;99.90;;;;;;5094336;28;20028;-84
2021/10/11 00:07:08;;;;;;;22.27;3.05;;;10.60;99.90;;;;;;5109339;28;20044;-84
2021/10/11 00:09:35;;;;;;;16.55;3.00;;;10.50;99.90;;;;;;5126476;27;20050;-85
2021/10/11 00:12:01;;;;;;;21.90;3.30;;;10.60;99.90;;;;;;5112738;27;20442;-84
2021/10/11 00:14:27;;;;;;;16.00;2.88;;;10.60;99.90;;;;;;5110071;28;20461;-84
2021/10/11 00:16:53;;;;;;;21.48;3.03;;;10.50;99.90;;;;;;5109827;28;20138;-84
2021/10/11 00:19:19;;;;;;;15.68;3.15;;;10.60;99.90;;;;;;5092614;28;20083;-84
2021/10/11 00:21:46;;;;;;;17.83;3.25;;;10.60;99.90;;;;;;5109285;28;20494;-85
2021/10/11 00:24:11;;;;;;;17.55;2.75;;;10.50;99.90;;;;;;5092270;28;20096;-85
2021/10/11 00:26:37;;;;;;;14.07;2.30;;;10.50;99.90;;;;;;5091964;28;20031;-84
2021/10/11 00:29:03;;;;;;;16.67;3.08;;;10.50;99.90;;;;;;5108475;28;20051;-84
2021/10/11 00:31:29;;;;;;;13.25;2.75;;;10.50;99.90;;;;;;5108907;28;20039;-84
2021/10/11 00:33:56;;;;;;;19.27;3.35;;;10.40;99.90;;;;;;5109265;28;20085;-84
2021/10/11 00:36:23;;;;;;;17.23;3.45;;;10.50;99.90;;;;;;5109222;28;20082;-84
2021/10/11 00:38:48;;;;;;;15.95;2.75;;;10.50;99.90;;;;;;5108853;28;20039;-84
2021/10/11 00:41:14;;;;;;;17.33;2.35;;;10.50;99.90;;;;;;5092044;28;20044;-85
2021/10/11 00:43:41;;;;;;;20.27;2.40;;;10.40;99.90;;;;;;5108678;28;20039;-84
2021/10/11 00:46:07;;;;;;;16.40;2.42;;;10.40;99.90;;;;;;5131987;27;20062;-84
2021/10/11 00:48:37;;;;;;;12.63;1.92;;;10.40;99.90;;;;;;5075160;28;20040;-84
2021/10/11 00:51:06;;;;;;;17.42;2.15;;;10.40;99.90;;;;;;5108819;28;20047;-84
2021/10/11 00:53:33;;;;;;;19.70;2.17;;;10.40;99.90;;;;;;5075334;28;20043;-85
2021/10/11 00:55:58;;;;;;;21.60;2.20;;;10.40;99.90;;;;;;5109168;28;20048;-84
2021/10/11 00:58:24;;;;;;;15.18;2.30;;;10.30;99.90;;;;;;5107801;28;20518;-84
2021/10/11 01:00:50;;;;;;;14.32;2.00;;;10.40;99.90;;;;;;5126315;27;20039;-84
2021/10/11 01:03:16;;;;;;;25.45;3.30;;;10.30;99.90;;;;;;5108212;28;20085;-85
2021/10/11 01:05:42;;;;;;;13.57;2.10;;;10.30;99.90;;;;;;5108971;28;20043;-84
2021/10/11 01:08:07;;;;;;;14.43;2.28;;;10.30;99.90;;;;;;5088653;28;20216;-84
2021/10/11 01:10:33;;;;;;;20.13;1.85;;;10.30;99.90;;;;;;5109075;28;20050;-84
2021/10/11 01:12:59;;;;;;;15.25;2.00;;;10.30;99.90;;;;;;5090438;28;20563;-85
2021/10/11 01:15:25;;;;;;;20.65;2.42;;;10.30;99.90;;;;;;5091684;28;20054;-84
2021/10/11 01:17:50;;;;;;;17.00;2.22;;;10.20;99.90;;;;;;5090736;28;20088;-85
2021/10/11 01:20:16;;;;;;;16.70;1.98;;;10.20;99.90;;;;;;5108815;28;20455;-84
2021/10/11 01:22:43;;;;;;;17.65;2.20;;;10.10;99.90;;;;;;5074288;28;20096;-84
2021/10/11 01:25:15;;;;;;;22.20;3.03;;;10.10;99.90;;;;;;5091964;28;20045;-84
2021/10/11 01:27:41;;;;;;;13.95;1.98;;;10.00;99.90;;;;;;5090325;28;20039;-85
2021/10/11 01:30:09;;;;;;;26.33;3.08;;;10.00;99.90;;;;;;5090919;28;20039;-84
2021/10/11 01:32:36;;;;;;;11.82;2.13;;;10.00;99.90;;;;;;5091506;28;20074;-84
2021/10/11 01:35:02;;;;;;;15.90;2.85;;;9.90;99.90;;;;;;5056221;28;20131;-84
2021/10/11 01:37:27;;;;;;;26.48;2.60;;;9.80;99.90;;;;;;5096412;28;20067;-84
2021/10/11 01:39:53;;;;;;;16.08;2.00;;;9.90;99.90;;;;;;5091584;28;20075;-84
2021/10/11 01:42:19;;;;;;;15.30;1.63;;;9.90;99.90;;;;;;5107339;28;20040;-84
2021/10/11 01:44:44;;;;;;;21.20;2.17;;;9.80;99.90;;;;;;5125078;27;20044;-84
2021/10/11 01:47:10;;;;;;;13.05;2.15;;;9.90;99.90;;;;;;5094232;28;20044;-84
2021/10/11 01:49:36;;;;;;;20.52;2.30;;;9.70;99.90;;;;;;5074184;28;20084;-84
2021/10/11 01:52:02;;;;;;;16.70;2.38;;;9.70;99.90;;;;;;5107712;28;20134;-84
2021/10/11 01:54:27;;;;;;;20.65;3.28;;;9.70;99.90;;;;;;5125013;27;20495;-84
2021/10/11 01:56:53;;;;;;;16.95;2.13;;;9.70;99.90;;;;;;5095411;28;20412;-84
2021/10/11 01:59:19;;;;;;;16.73;2.25;;;9.70;99.90;;;;;;5107507;28;20109;-85
2021/10/11 02:01:44;;;;;;;14.18;1.95;;;9.70;99.90;;;;;;5090540;28;20035;-84
2021/10/11 02:04:10;;;;;;;12.80;2.08;;;9.70;99.90;;;;;;5088792;28;20517;-84
2021/10/11 02:06:36;;;;;;;14.65;1.77;;;9.60;99.90;;;;;;5093845;28;20463;-84
2021/10/11 02:09:01;;;;;;;14.00;3.25;;;9.60;99.90;;;;;;5106634;27;20044;-84
2021/10/11 02:11:28;;;;;;;15.98;2.53;;;9.60;99.90;;;;;;5123487;27;20131;-83
2021/10/11 02:13:58;;;;;;;21.60;2.50;;;9.70;99.90;;;;;;5090573;28;20054;-84
2021/10/11 02:16:23;;;;;;;26.20;3.58;;;9.70;99.90;;;;;;5107123;28;20150;-84
2021/10/11 02:18:49;;;;;;;23.15;2.47;;;9.70;99.90;;;;;;5089717;28;20459;-84
2021/10/11 02:21:15;;;;;;;23.70;2.03;;;9.70;99.90;;;;;;5106840;28;20039;-84
2021/10/11 02:23:40;;;;;;;19.85;2.38;;;9.70;99.90;;;;;;5073145;28;20039;-85
2021/10/11 02:26:06;;;;;;;23.33;2.80;;;9.80;99.90;;;;;;5107242;28;20043;-84
2021/10/11 02:28:32;;;;;;;12.95;2.15;;;9.80;99.90;;;;;;5107594;28;20085;-84
2021/10/11 02:30:57;;;;;;;13.00;1.88;;;9.80;99.90;;;;;;5107129;28;20543;-84
2021/10/11 02:33:24;;;;;;;17.45;2.17;;;9.80;99.90;;;;;;5099472;28;20085;-84
2021/10/11 02:35:50;;;;;;;22.38;2.15;;;9.90;99.90;;;;;;5094472;28;20039;-84
2021/10/11 02:38:15;;;;;;;16.27;2.10;;;9.80;99.90;;;;;;5107059;28;20096;-84
2021/10/11 02:40:41;;;;;;;20.90;2.50;;;9.90;99.90;;;;;;5106942;28;20043;-84
2021/10/11 02:43:07;;;;;;;20.17;2.10;;;9.90;99.90;;;;;;5090479;28;20080;-84
2021/10/11 02:45:32;;;;;;;17.88;2.15;;;9.90;99.90;;;;;;5090050;28;20358;-84
2021/10/11 02:48:01;;;;;;;15.63;2.20;;;9.90;99.90;;;;;;5089868;28;20092;-85
2021/10/11 02:50:27;;;;;;;20.55;3.17;;;9.90;99.90;;;;;;5107524;28;20525;-84
2021/10/11 02:52:53;;;;;;;19.52;2.70;;;9.90;99.90;;;;;;5132842;27;20036;-84
2021/10/11 02:55:18;;;;;;;12.65;2.00;;;9.90;99.90;;;;;;5124169;27;20118;-84
2021/10/11 02:57:44;;;;;;;14.32;2.38;;;9.90;99.90;;;;;;5124756;27;20093;-85
2021/10/11 03:00:10;;;;;;;14.60;2.10;;;9.90;99.90;;;;;;5121764;27;20636;-84
2021/10/11 03:02:36;;;;;;;18.70;2.00;;;9.90;99.90;;;;;;5103340;28;20093;-85
2021/10/11 03:05:02;;;;;;;19.30;2.22;;;9.90;99.90;;;;;;5086867;28;20123;-85
2021/10/11 03:07:27;;;;;;;16.48;2.10;;;9.90;99.90;;;;;;5089896;28;20051;-84
2021/10/11 03:09:53;;;;;;;14.35;3.17;;;10.00;99.90;;;;;;5103900;28;20101;-85
2021/10/11 03:12:19;;;;;;;13.73;2.17;;;9.90;99.90;;;;;;5117634;27;20039;-84
2021/10/11 03:14:44;;;;;;;15.20;1.98;;;9.90;99.90;;;;;;5076507;28;20044;-84
2021/10/11 03:17:10;;;;;;;17.52;2.97;;;9.90;99.90;;;;;;5110934;28;20046;-84
2021/10/11 03:19:36;;;;;;;19.42;2.75;;;9.90;99.90;;;;;;5102053;28;20067;-84
2021/10/11 03:22:02;;;;;;;12.88;2.08;;;9.90;99.90;;;;;;5110700;28;20043;-84
2021/10/11 03:24:28;;;;;;;14.80;2.20;;;9.90;99.90;;;;;;5093974;28;20104;-84
2021/10/11 03:26:54;;;;;;;14.77;2.22;;;9.90;99.90;;;;;;5110772;28;20490;-84
2021/10/11 03:29:20;;;;;;;12.07;2.17;;;10.00;99.90;;;;;;5110366;28;20127;-84
2021/10/11 03:31:45;;;;;;;11.73;2.00;;;10.00;99.90;;;;;;5110517;28;20071;-84
2021/10/11 03:34:12;;;;;;;16.67;2.78;;;10.00;99.90;;;;;;5110368;28;20042;-84
2021/10/11 03:36:41;;;;;;;13.07;2.25;;;9.90;99.90;;;;;;5093817;28;20050;-84
2021/10/11 03:39:07;;;;;;;14.80;2.08;;;9.90;99.90;;;;;;5108761;28;20067;-85
2021/10/11 03:41:34;;;;;;;17.38;2.47;;;9.90;99.90;;;;;;5110739;28;20487;-85
2021/10/11 03:44:05;;;;;;;7.43;2.42;;;9.90;99.90;;;;;;5109605;28;20505;-84
2021/10/11 03:46:32;;;;;;;16.40;2.23;;;9.90;99.90;;;;;;5109931;28;20075;-85
2021/10/11 03:48:57;;;;;;;25.17;2.95;;;9.90;99.90;;;;;;5109728;28;20044;-84
2021/10/11 03:51:23;;;;;;;17.13;2.10;;;9.90;99.90;;;;;;5127336;27;20116;-84
2021/10/11 03:53:49;;;;;;;16.67;2.47;;;10.00;99.90;;;;;;5118971;27;20055;-84
2021/10/11 03:56:15;;;;;;;11.75;2.20;;;10.00;99.90;;;;;;5106085;28;20119;-84
2021/10/11 03:58:41;;;;;;;16.52;2.15;;;10.00;99.90;;;;;;5123748;27;20109;-84
2021/10/11 04:01:07;;;;;;;13.45;2.20;;;10.00;99.90;;;;;;5140917;27;20044;-84
2021/10/11 04:03:33;;;;;;;21.05;2.60;;;10.00;99.90;;;;;;5144913;27;20040;-84
2021/10/11 04:05:59;;;;;;;18.70;2.58;;;10.00;99.90;;;;;;5092940;28;20032;-84
2021/10/11 04:08:34;;;;;;;15.27;2.78;;;10.00;99.90;;;;;;5092286;28;20039;-84
2021/10/11 04:13:32;;;;;;;15.98;3.85;;;10.00;99.90;;;;;;5109442;28;20499;-84
2021/10/11 04:15:58;;;;;;;15.02;2.45;;;10.00;99.90;;;;;;5129651;27;20050;-84
2021/10/11 04:18:24;;;;;;;19.20;2.92;;;10.10;99.90;;;;;;5089032;28;20537;-85
2021/10/11 04:20:49;;;;;;;13.52;2.05;;;10.10;99.90;;;;;;5118711;27;20039;-84
2021/10/11 04:23:15;;;;;;;23.35;2.58;;;10.10;99.90;;;;;;5091970;28;20066;-84
2021/10/11 04:25:41;;;;;;;24.73;2.20;;;10.20;99.90;;;;;;5133855;27;20040;-84
2021/10/11 04:28:08;;;;;;;16.10;1.92;;;10.20;99.90;;;;;;5105899;28;20079;-84
2021/10/11 04:30:34;;;;;;;19.42;2.35;;;10.20;99.90;;;;;;5096917;28;20047;-83
2021/10/11 04:33:00;;;;;;;22.70;2.03;;;10.20;99.90;;;;;;5092161;28;20043;-84
2021/10/11 04:35:27;;;;;;;20.25;2.10;;;10.20;99.90;;;;;;5092451;28;20043;-85
2021/10/11 04:37:52;;;;;;;18.63;2.30;;;10.20;99.90;;;;;;5108899;28;20057;-84
2021/10/11 04:40:19;;;;;;;15.45;3.00;;;10.20;99.90;;;;;;5074915;28;20122;-84
2021/10/11 04:42:45;;;;;;;22.05;2.25;;;10.20;99.90;;;;;;5092864;28;20129;-84
2021/10/11 04:45:11;;;;;;;14.57;2.20;;;10.20;99.90;;;;;;5090872;28;20506;-84
2021/10/11 04:47:37;;;;;;;18.80;2.20;;;10.10;99.90;;;;;;5091901;28;20081;-84
2021/10/11 04:50:04;;;;;;;16.15;2.22;;;10.10;99.90;;;;;;5107973;28;20044;-85
2021/10/11 04:52:29;;;;;;;18.60;2.22;;;10.10;99.90;;;;;;5095165;28;20513;-85
2021/10/11 04:54:56;;;;;;;17.92;2.35;;;10.10;99.90;;;;;;5115595;27;20130;-85
2021/10/11 04:57:22;;;;;;;19.08;2.33;;;10.10;99.90;;;;;;5124860;27;20067;-86
2021/10/11 04:59:48;;;;;;;19.60;2.63;;;10.10;99.90;;;;;;5121446;27;20040;-85
2021/10/11 05:02:13;;;;;;;18.83;2.83;;;10.10;99.90;;;;;;5104945;28;20063;-84
2021/10/11 05:04:39;;;;;;;26.05;2.55;;;10.10;99.90;;;;;;5091242;28;20070;-87
2021/10/11 05:07:05;;;;;;;21.45;2.38;;;10.00;99.90;;;;;;5087623;28;20486;-86
2021/10/11 05:09:31;;;;;;;22.92;2.10;;;10.10;99.90;;;;;;5108536;28;20047;-88
2021/10/11 05:11:58;;;;;;;18.50;2.60;;;10.10;99.90;;;;;;5092422;28;20107;-89
2021/10/11 05:14:23;;;;;;;15.43;2.25;;;10.00;99.90;;;;;;5092045;28;20074;-87
2021/10/11 05:16:49;;;;;;;17.60;2.30;;;10.00;99.90;;;;;;5091631;28;20074;-85
2021/10/11 05:19:23;;;;;;;16.50;2.40;;;10.00;99.90;;;;;;5108292;28;20039;-87
2021/10/11 05:21:49;;;;;;;18.05;2.30;;;10.00;99.90;;;;;;5124440;27;20119;-89
2021/10/11 05:24:16;;;;;;;12.68;1.85;;;10.00;99.90;;;;;;5108242;28;20143;-86
2021/10/11 05:26:41;;;;;;;19.00;2.83;;;10.00;99.90;;;;;;5091563;28;20104;-84
2021/10/11 05:29:07;;;;;;;18.27;2.20;;;10.00;99.90;;;;;;5091199;28;20557;-86
2021/10/11 05:31:33;;;;;;;15.35;1.85;;;9.90;99.90;;;;;;5073954;28;20126;-85
2021/10/11 05:33:59;;;;;;;21.08;2.38;;;10.00;99.90;;;;;;5109117;27;20067;-85
2021/10/11 05:36:25;;;;;;;17.98;2.15;;;10.00;99.90;;;;;;5078901;28;20040;-85
2021/10/11 05:38:52;;;;;;;20.88;2.58;;;10.00;99.90;;;;;;5073746;28;20050;-84
2021/10/11 05:41:18;;;;;;;20.65;2.80;;;10.00;99.90;;;;;;5106398;28;20518;-85
2021/10/11 05:43:44;;;;;;;13.38;2.10;;;10.00;99.90;;;;;;5090014;28;20050;-84
2021/10/11 05:46:10;;;;;;;16.65;1.85;;;9.90;99.90;;;;;;5089543;28;20043;-84
2021/10/11 05:48:36;;;;;;;19.00;2.65;;;10.00;99.90;;;;;;5108068;28;20100;-84
2021/10/11 05:51:02;;;;;;;18.90;2.00;;;9.90;99.90;;;;;;5069564;28;20479;-84
2021/10/11 05:53:27;;;;;;;15.63;2.20;;;9.90;99.90;;;;;;5090945;28;20091;-85
2021/10/11 05:55:53;;;;;;;16.38;2.20;;;9.80;99.90;;;;;;5135680;27;20036;-85
2021/10/11 05:58:18;;;;;;;21.33;2.22;;;9.80;99.90;;;;;;5090555;28;20066;-85
2021/10/11 06:00:44;;;;;;;21.38;2.42;;;9.70;99.90;;;;;;5088014;28;20035;-84
2021/10/11 06:03:10;;;;;;;17.33;1.83;;;9.70;99.90;;;;;;5102468;28;20067;-84
2021/10/11 06:05:36;;;;;;;17.10;2.13;;;9.70;99.90;;;;;;5087431;27;20539;-84
2021/10/11 06:08:01;;;;;;;22.88;2.13;;;9.60;99.90;;;;;;5105922;28;20084;-84
2021/10/11 06:10:27;;;;;;;12.10;1.95;;;9.60;99.90;;;;;;5089339;28;20134;-85
2021/10/11 06:12:53;;;;;;;16.92;2.85;;;9.60;99.90;;;;;;5123901;27;20067;-85
2021/10/11 06:15:19;;;;;;;14.02;2.03;;;9.50;99.90;;;;;;5124472;27;20494;-85
2021/10/11 06:17:45;;;;;;;20.17;2.45;;;9.50;99.90;;;;;;5090689;28;20116;-84
2021/10/11 06:20:11;;;;;;;21.10;2.70;;;9.50;99.90;;;;;;5090543;28;20074;-84
2021/10/11 06:22:37;;;;;;;16.65;4.15;;;9.50;99.90;;;;;;5107585;28;20070;-84
2021/10/11 06:25:04;;;;;;;19.65;3.20;;;9.50;99.90;;;;;;5112577;28;20040;-84
2021/10/11 06:27:31;;;;;;;24.33;2.72;;;9.60;99.90;;;;;;5121484;27;20051;-85
2021/10/11 06:29:56;;;;;;;17.65;2.80;;;9.60;99.90;;;;;;5104125;28;20115;-84
2021/10/11 06:32:22;;;;;;;23.65;3.33;;;9.60;99.90;;;;;;5104383;28;20177;-85
2021/10/11 06:34:48;;;;;;;20.25;2.85;;;9.60;99.90;;;;;;5105056;28;20047;-85
2021/10/11 06:37:14;;;;;;;20.08;4.28;;;9.60;99.90;;;;;;5090543;28;20043;-84
2021/10/11 06:39:40;;;;;;;16.88;3.03;;;9.60;99.90;;;;;;5073259;28;20075;-84
2021/10/11 06:42:06;;;;;;;18.67;3.47;;;9.70;99.90;;;;;;5106041;28;20039;-85
2021/10/11 06:44:31;;;;;;;16.60;2.42;;;9.70;99.90;;;;;;5073095;28;20077;-85
2021/10/11 06:46:58;;;;;;;22.10;2.75;;;9.70;99.90;;;;;;5091785;28;20039;-85
2021/10/11 06:49:24;;;;;;;19.15;2.80;;;9.70;99.90;;;;;;5091847;28;20031;-84
2021/10/11 06:51:49;;;;;;;17.25;2.53;;;9.70;99.90;;;;;;5111300;28;20108;-84
2021/10/11 06:54:15;;;;;;;15.25;2.55;;;9.70;99.90;;;;;;5094118;28;20044;-85
2021/10/11 06:56:41;;;;;;;21.23;3.10;;;9.70;99.90;;;;;;5076519;28;20441;-84
2021/10/11 06:59:07;;;;;;;20.23;2.85;;;9.70;99.90;;;;;;5091929;28;20051;-84
2021/10/11 07:01:33;;;;;;;14.40;2.40;;;9.70;99.90;;;;;;5111459;28;20043;-84
2021/10/11 07:03:58;;;;;;;13.52;2.40;;;9.80;99.90;;;;;;5110953;28;20375;-83
2021/10/11 07:06:25;;;;;;;19.52;2.33;;;9.80;99.90;;;;;;5111092;28;20127;-84
2021/10/11 07:08:52;;;;;;;19.70;2.50;;;9.90;99.90;;;;;;5145651;27;20413;-84
2021/10/11 07:11:18;;;;;;;17.98;2.35;;;9.90;99.90;;;;;;5128494;27;20490;-84
2021/10/11 07:13:44;;;;;;;17.08;2.97;;;9.90;99.90;;;;;;5112190;27;20050;-85
2021/10/11 07:16:10;;;;;;;22.63;5.25;;;10.00;99.90;;;;;;5109364;28;20059;-84
2021/10/11 07:18:36;;;;;;;18.83;3.55;;;10.00;99.90;;;;;;5093162;28;20040;-84
2021/10/11 07:21:06;;;;;;;21.45;3.35;;;10.00;99.90;;;;;;5091097;28;20043;-84
2021/10/11 07:23:33;;;;;;;20.98;2.97;;;10.10;99.90;;;;;;5110567;28;20487;-86
2021/10/11 07:26:00;;;;;;;10.65;2.70;;;10.10;99.90;;;;;;5093869;28;20032;-85
2021/10/11 07:28:26;;;;;;;18.40;3.05;;;10.20;99.90;;;;;;5095275;28;20074;-84
2021/10/11 07:30:53;;;;;;;21.67;2.70;;;10.20;99.90;;;;;;5093325;28;20101;-85
2021/10/11 07:33:22;;;;;;;12.02;2.00;;;10.20;99.90;;;;;;5090745;28;20100;-84
2021/10/11 07:35:49;;;;;;;14.95;2.65;;;10.30;99.90;;;;;;5091667;28;20449;-84
2021/10/11 07:38:15;;;;;;;13.88;2.10;;;10.30;99.90;;;;;;5074351;28;20104;-84
2021/10/11 07:40:41;;;;;;;22.27;2.95;;;10.40;99.90;;;;;;5074480;28;20463;-84
2021/10/11 07:43:06;;;;;;;20.83;2.88;;;10.40;99.90;;;;;;5075236;28;20063;-84
2021/10/11 07:45:32;;;;;;;9.43;1.58;;;10.40;99.90;;;;;;5074246;28;20047;-85
2021/10/11 07:47:58;;;;;;;15.70;2.38;;;10.50;99.90;;;;;;5125915;27;21016;-84
2021/10/11 07:50:24;;;;;;;17.92;3.08;;;10.60;99.90;;;;;;5126222;27;20051;-84
2021/10/11 07:52:49;;;;;;;15.82;2.28;;;10.60;99.90;;;;;;5141989;27;20040;-84
2021/10/11 07:55:15;;;;;;;14.65;1.80;;;10.70;99.90;;;;;;5142132;27;20058;-83
2021/10/11 07:57:42;;;;;;;17.95;2.10;;;10.70;99.90;;;;;;5090497;28;20050;-84
2021/10/11 08:00:14;;;;;;;9.23;2.15;;;10.80;99.90;;;;;;5107974;28;20043;-84
2021/10/11 08:02:40;;;;;;;10.75;1.63;;;10.80;99.90;;;;;;5091620;28;20462;-84
2021/10/11 08:05:08;;;;;;;12.20;1.55;;;10.90;99.90;;;;;;5108608;28;20120;-83
2021/10/11 08:07:33;;;;;;;15.05;1.67;;;11.00;99.90;;;;;;5143865;27;20398;-84
2021/10/11 08:09:59;;;;;;;23.90;2.88;;;11.10;99.90;;;;;;5144633;27;20043;-84
2021/10/11 08:12:25;;;;;;;19.33;2.40;;;11.10;99.90;;;;;;5093385;28;20043;-84
2021/10/11 08:14:50;;;;;;;11.27;2.28;;;11.20;99.90;;;;;;5110490;28;20039;-84
2021/10/11 08:17:16;;;;;;;12.75;1.92;;;11.40;99.90;;;;;;5092529;28;20411;-84
2021/10/11 08:19:42;;;;;;;13.20;1.70;;;11.50;99.90;;;;;;5092788;28;20048;-84
2021/10/11 08:22:08;;;;;;;12.57;1.52;;;11.70;99.90;;;;;;5109436;28;20383;-84
2021/10/11 08:24:34;;;;;;;11.60;1.60;;;11.80;99.90;;;;;;5126889;27;20173;-84
2021/10/11 08:26:59;;;;;;;9.32;1.30;;;11.90;99.90;;;;;;5126287;27;20402;-85
2021/10/11 08:29:25;;;;;;;11.98;1.67;;;11.90;99.90;;;;;;5126292;27;20123;-84
2021/10/11 08:31:52;;;;;;;12.40;1.75;;;11.90;99.90;;;;;;5143781;27;20050;-84
2021/10/11 08:34:19;;;;;;;10.27;1.08;;;12.00;99.90;;;;;;5092819;28;20043;-84
2021/10/11 08:36:45;;;;;;;13.95;1.50;;;12.00;99.90;;;;;;5076012;28;20126;-84
2021/10/11 08:39:10;;;;;;;9.52;1.67;;;12.00;99.90;;;;;;5092293;28;20184;-84
2021/10/11 08:41:36;;;;;;;7.25;1.80;;;12.00;99.90;;;;;;5072134;28;20032;-84
2021/10/11 08:44:02;;;;;;;11.60;1.25;;;12.00;99.90;;;;;;5106189;28;20128;-84
2021/10/11 08:46:28;;;;;;;8.52;1.85;;;12.00;99.90;;;;;;5103266;28;20040;-84
2021/10/11 08:48:54;;;;;;;11.23;1.42;;;12.00;99.90;;;;;;5075590;28;20050;-84
2021/10/11 08:51:19;;;;;;;8.85;0.95;;;12.00;99.90;;;;;;5092522;28;20047;-84
2021/10/11 08:53:45;;;;;;;10.77;1.42;;;12.00;99.90;;;;;;5075115;28;20043;-84
2021/10/11 08:56:12;;;;;;;13.02;1.63;;;12.00;99.90;;;;;;5109198;28;20051;-85
2021/10/11 08:58:46;;;;;;;15.25;1.35;;;12.00;99.90;;;;;;5092121;28;20062;-84
2021/10/11 09:01:12;;;;;;;11.82;1.00;;;11.90;99.90;;;;;;5125241;27;20035;-84
2021/10/11 09:03:39;;;;;;;13.38;1.20;;;12.00;99.90;;;;;;5143883;27;20394;-84
2021/10/11 09:06:07;;;;;;;5.90;1.52;;;12.00;99.90;;;;;;5143109;27;20100;-85
2021/10/11 09:08:34;;;;;;;7.43;1.73;;;12.00;99.90;;;;;;5126493;27;20063;-84
2021/10/11 09:11:06;;;;;;;15.52;1.70;;;12.20;99.90;;;;;;5125247;27;20085;-84
2021/10/11 09:13:45;;;;;;;12.30;1.55;;;12.20;99.90;;;;;;5108865;28;20529;-84
2021/10/11 09:16:34;;;;;;;8.15;1.20;;;12.30;99.90;;;;;;5092103;28;20039;-84
2021/10/11 09:19:18;;;;;;;8.00;1.27;;;12.40;99.90;;;;;;5091257;28;20050;-84
2021/10/11 09:21:44;;;;;;;11.65;1.40;;;12.60;99.90;;;;;;5108540;28;20118;-85
2021/10/11 09:24:18;;;;;;;16.10;1.50;;;12.60;99.90;;;;;;5090772;28;20507;-85
2021/10/11 09:26:46;;;;;;;10.90;1.48;;;12.70;99.90;;;;;;5090941;28;20088;-84
2021/10/11 09:29:14;;;;;;;12.98;1.20;;;12.80;99.90;;;;;;5091313;28;21149;-84
2021/10/11 09:31:43;;;;;;;12.52;1.25;;;12.80;99.90;;;;;;5108681;28;20040;-85
2021/10/11 09:34:13;;;;;;;11.68;1.70;;;12.90;99.90;;;;;;5108141;28;20119;-85
2021/10/11 09:36:40;;;;;;;10.55;1.40;;;12.90;99.90;;;;;;5125399;27;20075;-85
2021/10/11 09:39:06;;;;;;;8.57;1.83;;;13.10;99.90;;;;;;5101810;28;20036;-85
2021/10/11 09:41:32;;;;;;;10.55;1.52;;;13.00;99.90;;;;;;5095129;28;20047;-84
2021/10/11 09:43:57;;;;;;;8.52;1.25;;;13.00;99.90;;;;;;5108023;28;20081;-84
2021/10/11 09:46:26;;;;;;;5.30;1.00;;;13.00;99.90;;;;;;5091859;28;20071;-84
2021/10/11 09:48:53;;;;;;;7.20;0.90;;;13.00;99.90;;;;;;5090935;28;20472;-84
2021/10/11 09:51:24;;;;;;;9.25;0.95;;;13.00;99.90;;;;;;5074324;28;20054;-84
2021/10/11 09:53:52;;;;;;;3.88;1.00;;;13.10;99.90;;;;;;5074457;28;20043;-85
2021/10/11 09:56:18;;;;;;;8.55;1.35;;;13.10;99.90;;;;;;5090929;28;20671;-84
2021/10/11 09:58:44;;;;;;;10.38;1.40;;;13.20;99.90;;;;;;5090206;28;20044;-84
2021/10/11 10:01:10;;;;;;;7.55;1.08;;;13.20;99.90;;;;;;5108248;28;20047;-84
2021/10/11 10:03:36;;;;;;;5.60;1.20;;;13.20;99.90;;;;;;5107483;28;20045;-85
2021/10/11 10:06:06;;;;;;;8.85;1.42;;;13.20;99.90;;;;;;5074310;28;20126;-85
2021/10/11 10:08:36;;;;;;;7.22;1.05;;;13.30;99.90;;;;;;5107450;28;20036;-85
2021/10/11 10:11:02;;;;;;;14.40;1.73;;;13.30;99.90;;;;;;5107783;28;20036;-84
2021/10/11 10:13:29;;;;;;;11.07;1.67;;;13.30;99.90;;;;;;5108082;28;20063;-85
2021/10/11 10:16:07;;;;;;;10.80;1.30;;;13.30;99.90;;;;;;5091146;28;20044;-85
2021/10/11 10:18:42;;;;;;;14.27;3.28;;;13.30;99.90;;;;;;5107229;28;20050;-85
2021/10/11 10:21:08;;;;;;;8.70;1.77;;;13.40;99.90;;;;;;5089885;28;20395;-85
2021/10/11 10:23:39;;;;;;;15.57;2.22;;;13.50;99.90;;;;;;5108009;28;20107;-85
2021/10/11 10:26:10;;;;;;;11.38;1.70;;;13.60;99.90;;;;;;5090196;28;20039;-85
2021/10/11 10:28:45;;;;;;;13.35;1.80;;;13.60;99.90;;;;;;5107762;28;20126;-85
2021/10/11 10:31:13;;;;;;;16.73;1.90;;;13.70;99.90;;;;;;5090235;28;20051;-85
2021/10/11 10:33:40;;;;;;;13.02;1.95;;;13.80;99.90;;;;;;5107082;28;20150;-84
2021/10/11 10:36:23;;;;;;;17.55;2.40;;;14.00;99.90;;;;;;5090747;28;20475;-85
2021/10/11 10:39:05;;;;;;;13.20;3.25;;;14.10;99.90;;;;;;5090570;28;20054;-84
2021/10/11 10:41:31;;;;;;;10.38;1.60;;;14.20;99.90;;;;;;5090478;28;20040;-85
2021/10/11 10:44:07;;;;;;;13.38;2.50;;;14.20;99.90;;;;;;5107690;28;20044;-85
2021/10/11 10:46:33;;;;;;;12.98;1.95;;;14.30;99.90;;;;;;5141577;27;20100;-85
2021/10/11 10:48:59;;;;;;;12.55;1.55;;;14.30;99.90;;;;;;5124882;28;20043;-84
2021/10/11 10:51:24;;;;;;;11.88;1.55;;;14.40;99.90;;;;;;5107306;28;20058;-85
2021/10/11 10:53:56;;;;;;;9.60;1.35;;;14.30;99.90;;;;;;5107429;28;20104;-84
2021/10/11 10:56:23;;;;;;;16.45;2.10;;;14.30;99.90;;;;;;5141292;27;20043;-85
2021/10/11 10:58:59;;;;;;;11.45;1.92;;;14.20;99.90;;;;;;5090457;28;20094;-85
2021/10/11 11:01:25;;;;;;;14.63;1.48;;;14.00;99.90;;;;;;5141227;27;20157;-85
2021/10/11 11:03:52;;;;;;;7.22;1.42;;;13.90;99.90;;;;;;5124739;28;20101;-85
2021/10/11 11:06:31;;;;;;;8.00;1.38;;;13.90;99.90;;;;;;5124175;28;20452;-85
2021/10/11 11:08:58;;;;;;;9.55;1.40;;;13.80;99.90;;;;;;5142132;27;20455;-84
2021/10/11 11:11:28;;;;;;;9.27;1.00;;;13.90;99.90;;;;;;5124021;28;20411;-85
2021/10/11 11:13:58;;;;;;;6.00;1.25;;;13.90;99.90;;;;;;5072241;28;20047;-85
2021/10/11 11:16:29;;;;;;;6.75;0.98;;;13.90;99.90;;;;;;5121043;28;20048;-85
2021/10/11 11:18:57;;;;;;;4.82;1.15;;;13.90;99.90;;;;;;5084061;28;20072;-85
2021/10/11 11:21:23;;;;;;;7.78;1.67;;;13.90;99.90;;;;;;5087030;28;20119;-85
2021/10/11 11:23:49;;;;;;;7.70;0.98;;;13.90;99.90;;;;;;5120717;27;20460;-85
2021/10/11 11:26:16;;;;;;;4.65;0.52;;;13.90;99.90;;;;;;5106529;28;20157;-85
2021/10/11 11:28:41;;;;;;;4.28;0.70;;;13.90;99.90;;;;;;5107098;28;20048;-85
2021/10/11 11:31:10;;;;;;;5.20;0.85;;;13.80;99.90;;;;;;5107031;28;20052;-85
2021/10/11 11:33:41;;;;;;;6.35;0.70;;;13.80;99.90;;;;;;5142852;27;20127;-84
2021/10/11 11:36:07;;;;;;;6.18;0.73;;;13.80;99.90;;;;;;5093481;28;20122;-85
2021/10/11 11:38:38;;;;;;;5.53;0.65;;;13.80;99.90;;;;;;5093749;28;20126;-85
2021/10/11 11:41:06;;;;;;;4.05;1.13;;;13.90;99.90;;;;;;5110382;28;20071;-85
2021/10/11 11:43:41;;;;;;;4.68;0.65;;;14.00;99.90;;;;;;5110855;28;20118;-84
2021/10/11 11:46:08;;;;;;;9.52;0.82;;;14.00;99.90;;;;;;5110326;28;20543;-85
2021/10/11 11:48:36;;;;;;;7.43;1.80;;;14.10;99.90;;;;;;5145335;27;20075;-85
2021/10/11 11:51:12;;;;;;;7.55;0.93;;;14.20;99.90;;;;;;5119872;27;20119;-85
2021/10/11 11:53:40;;;;;;;7.95;0.90;;;14.20;99.90;;;;;;5090184;28;20047;-85
2021/10/11 11:56:08;;;;;;;9.32;1.40;;;14.30;99.90;;;;;;5109119;28;20494;-85
2021/10/11 11:58:39;;;;;;;8.27;1.33;;;14.30;99.90;;;;;;5144484;27;20062;-85
2021/10/11 12:01:14;;;;;;;8.18;0.95;;;14.20;99.90;;;;;;5144766;27;20143;-85
2021/10/11 12:03:51;;;;;;;9.32;1.13;;;14.30;99.90;;;;;;5144697;27;20047;-85
2021/10/11 12:06:18;;;;;;;8.38;1.33;;;14.30;99.90;;;;;;5144247;27;20515;-85
2021/10/11 12:08:46;;;;;;;10.40;2.35;;;14.40;99.90;;;;;;5092953;28;20035;-85
2021/10/11 12:11:12;;;;;;;8.65;1.23;;;14.50;99.90;;;;;;5093448;28;20047;-85
2021/10/11 12:13:43;;;;;;;6.75;0.93;;;14.60;99.90;;;;;;5109838;28;20495;-85
2021/10/11 12:16:12;;;;;;;7.07;1.30;;;14.60;99.90;;;;;;5110363;28;20581;-85
2021/10/11 12:18:37;;;;;;;8.35;1.10;;;14.60;99.90;;;;;;5109634;28;20042;-85
2021/10/11 12:21:04;;;;;;;6.78;1.08;;;14.70;99.90;;;;;;5127377;27;20036;-85
2021/10/11 12:23:41;;;;;;;10.88;1.20;;;14.70;99.90;;;;;;5092268;28;20039;-85
2021/10/11 12:26:08;;;;;;;10.27;1.25;;;14.70;99.90;;;;;;5109937;28;20042;-85
2021/10/11 12:28:34;;;;;;;11.32;1.60;;;14.70;99.90;;;;;;5092448;28;20043;-85
2021/10/11 12:31:03;;;;;;;9.57;1.55;;;14.70;99.90;;;;;;5093185;28;20512;-85
2021/10/11 12:33:39;;;;;;;10.93;1.33;;;14.80;99.90;;;;;;5109493;28;20118;-85
2021/10/11 12:36:07;;;;;;;12.35;1.42;;;14.90;99.90;;;;;;5144389;27;20036;-85
2021/10/11 12:38:38;;;;;;;10.32;1.55;;;15.00;99.90;;;;;;5143857;27;20043;-85
2021/10/11 12:41:13;;;;;;;7.15;1.35;;;15.00;99.90;;;;;;5092877;28;20039;-85
2021/10/11 12:43:51;;;;;;;7.75;1.35;;;15.10;99.90;;;;;;5108669;28;20044;-85